Time;durP1;ratioP1;P1;durP2;ratioP2;P2;SDS_P1;SDS_P2;PMS_P1;PMS_P2;Temp;Humidity;BMP_temperature;BMP_pressure;BME280_temperature;BME280_humidity;BME280_pressure;Samples;Min_cycle;Max_cycle;Signal;HPM_P1;HPM_P2
2023/01/08 00:01:39;;;;;;;3.15;1.40;;;;;;;;;;5058779;28;20081;-78
2023/01/08 00:04:04;;;;;;;7.00;1.60;;;;;;;;;;5093569;28;20066;-78
2023/01/08 00:06:30;;;;;;;2.00;1.20;;;;;;;;;;5093820;28;20089;-78
2023/01/08 00:08:55;;;;;;;2.85;1.23;;;;;;;;;;5093920;28;20034;-78
2023/01/08 00:11:20;;;;;;;2.22;1.48;;;;;;;;;;5093598;28;20048;-78
2023/01/08 00:13:46;;;;;;;2.67;1.30;;;;;;;;;;5075641;28;20487;-77
2023/01/08 00:16:14;;;;;;;1.67;1.30;;;;;;;;;;5075603;28;20039;-78
2023/01/08 00:18:39;;;;;;;1.77;1.10;;;;;;;;;;5058682;28;20383;-78
2023/01/08 00:21:05;;;;;;;1.52;1.30;;;;;;;;;;5075378;28;20036;-78
2023/01/08 00:23:31;;;;;;;1.10;1.00;;;;;;;;;;5075402;28;20425;-77
2023/01/08 00:26:00;;;;;;;2.70;1.33;;;;;;;;;;5092307;28;20103;-78
2023/01/08 00:28:25;;;;;;;3.38;1.20;;;;;;;;;;5093320;28;20031;-78
2023/01/08 00:30:50;;;;;;;1.85;1.00;;;;;;;;;;5071956;28;20398;-79
2023/01/08 00:33:16;;;;;;;1.33;0.95;;;;;;;;;;5110922;28;20381;-78
2023/01/08 00:35:41;;;;;;;3.05;1.13;;;;;;;;;;5114043;28;20027;-79
2023/01/08 00:38:07;;;;;;;1.52;1.00;;;;;;;;;;5102310;28;20073;-79
2023/01/08 00:40:33;;;;;;;1.50;0.80;;;;;;;;;;5094559;28;20050;-78
2023/01/08 00:42:59;;;;;;;3.45;0.90;;;;;;;;;;5090096;28;20047;-79
2023/01/08 00:45:24;;;;;;;2.63;1.30;;;;;;;;;;5093062;28;20059;-79
2023/01/08 00:47:50;;;;;;;1.50;1.00;;;;;;;;;;5093144;28;20438;-78
2023/01/08 00:50:15;;;;;;;1.05;1.00;;;;;;;;;;5078861;28;20494;-79
2023/01/08 00:52:41;;;;;;;2.78;1.10;;;;;;;;;;5093243;28;20119;-78
2023/01/08 00:55:06;;;;;;;1.52;1.20;;;;;;;;;;5078144;28;20386;-79
2023/01/08 00:57:33;;;;;;;2.35;1.08;;;;;;;;;;5098968;28;20034;-79
2023/01/08 00:59:59;;;;;;;2.65;1.02;;;;;;;;;;5081535;28;20383;-79
2023/01/08 01:02:24;;;;;;;2.40;0.98;;;;;;;;;;5105284;28;20032;-79
2023/01/08 01:04:49;;;;;;;2.38;1.00;;;;;;;;;;5098245;28;20028;-79
2023/01/08 01:07:15;;;;;;;3.88;1.23;;;;;;;;;;5109694;28;20051;-79
2023/01/08 01:09:41;;;;;;;1.45;1.00;;;;;;;;;;5089890;28;20409;-79
2023/01/08 01:12:07;;;;;;;1.40;0.90;;;;;;;;;;5102110;28;20048;-79
2023/01/08 01:14:32;;;;;;;2.03;1.10;;;;;;;;;;5113603;28;20044;-79
2023/01/08 01:16:57;;;;;;;5.90;1.05;;;;;;;;;;5101873;28;20088;-79
2023/01/08 01:19:23;;;;;;;1.23;1.00;;;;;;;;;;5108344;28;20377;-80
2023/01/08 01:21:48;;;;;;;1.98;0.82;;;;;;;;;;5090683;28;20027;-80
2023/01/08 01:24:14;;;;;;;1.20;0.88;;;;;;;;;;5101099;28;20115;-80
2023/01/08 01:26:40;;;;;;;1.98;1.20;;;;;;;;;;5094363;28;20024;-79
2023/01/08 01:29:05;;;;;;;1.52;0.98;;;;;;;;;;5081590;28;20039;-79
2023/01/08 01:31:31;;;;;;;1.67;0.90;;;;;;;;;;5107059;28;20356;-79
2023/01/08 01:33:57;;;;;;;1.95;1.00;;;;;;;;;;5080853;28;20078;-79
2023/01/08 01:36:23;;;;;;;1.42;1.00;;;;;;;;;;5091820;28;20029;-79
2023/01/08 01:38:51;;;;;;;2.35;0.95;;;;;;;;;;5100545;28;20141;-79
2023/01/08 01:41:41;;;;;;;1.25;1.13;;;;;;;;;;5090370;28;20028;-79
2023/01/08 01:44:36;;;;;;;2.22;0.93;;;;;;;;;;5089654;28;20020;-79
2023/01/08 01:47:32;;;;;;;2.70;1.10;;;;;;;;;;5066425;28;20012;-78
2023/01/08 01:50:06;;;;;;;1.35;0.60;;;;;;;;;;5068280;28;20072;-78
2023/01/08 01:52:35;;;;;;;2.65;1.40;;;;;;;;;;5094636;28;20466;-78
2023/01/08 01:55:00;;;;;;;2.42;1.00;;;;;;;;;;5100667;28;20466;-78
2023/01/08 01:57:28;;;;;;;1.02;0.88;;;;;;;;;;5087252;28;20119;-78
2023/01/08 01:59:54;;;;;;;1.88;0.93;;;;;;;;;;5085669;28;20085;-78
2023/01/08 02:02:19;;;;;;;1.40;1.00;;;;;;;;;;5113073;28;20034;-78
2023/01/08 02:04:45;;;;;;;2.85;1.10;;;;;;;;;;5077347;28;20414;-78
2023/01/08 02:07:22;;;;;;;3.65;1.13;;;;;;;;;;5095641;28;20176;-78
2023/01/08 02:09:51;;;;;;;1.10;0.93;;;;;;;;;;5095792;28;20032;-80
2023/01/08 02:12:20;;;;;;;1.40;0.93;;;;;;;;;;5081250;28;20325;-79
2023/01/08 02:15:17;;;;;;;2.10;0.85;;;;;;;;;;5107670;28;20028;-79
2023/01/08 02:17:45;;;;;;;1.52;0.98;;;;;;;;;;5075775;28;20444;-79
2023/01/08 02:20:14;;;;;;;0.70;0.70;;;;;;;;;;5082637;28;20077;-80
2023/01/08 02:23:33;;;;;;;1.15;0.90;;;;;;;;;;5095581;28;20034;-79
2023/01/08 02:26:16;;;;;;;2.20;1.00;;;;;;;;;;5013375;28;20029;-79
2023/01/08 02:29:07;;;;;;;1.55;0.98;;;;;;;;;;5087819;28;20067;-79
2023/01/08 02:31:35;;;;;;;1.25;0.90;;;;;;;;;;5087504;28;20059;-79
2023/01/08 02:34:00;;;;;;;2.45;1.10;;;;;;;;;;5079683;28;20028;-80
2023/01/08 02:36:39;;;;;;;1.95;1.05;;;;;;;;;;5107447;28;20077;-80
2023/01/08 02:39:26;;;;;;;1.10;0.77;;;;;;;;;;5066075;28;20051;-80
2023/01/08 02:42:00;;;;;;;1.58;0.93;;;;;;;;;;5084549;28;20035;-80
2023/01/08 02:44:33;;;;;;;1.63;0.88;;;;;;;;;;5111832;28;20024;-80
2023/01/08 02:46:59;;;;;;;1.05;0.90;;;;;;;;;;5095101;28;20030;-80
2023/01/08 02:49:29;;;;;;;1.45;1.20;;;;;;;;;;5088163;28;20032;-79
2023/01/08 02:51:56;;;;;;;2.72;1.00;;;;;;;;;;5086293;28;20020;-79
2023/01/08 02:54:27;;;;;;;1.27;0.70;;;;;;;;;;5079917;28;20065;-79
2023/01/08 02:56:58;;;;;;;0.90;0.90;;;;;;;;;;5092349;28;20112;-80
2023/01/08 02:59:25;;;;;;;1.05;0.90;;;;;;;;;;5082253;28;20470;-80
2023/01/08 03:01:51;;;;;;;1.05;1.00;;;;;;;;;;5067553;28;20058;-79
2023/01/08 03:04:18;;;;;;;2.22;1.00;;;;;;;;;;5072328;28;20440;-80
2023/01/08 03:06:44;;;;;;;1.42;0.90;;;;;;;;;;5059945;28;20390;-79
2023/01/08 03:09:10;;;;;;;1.98;0.90;;;;;;;;;;5090078;28;20051;-79
2023/01/08 03:11:45;;;;;;;1.85;0.88;;;;;;;;;;5094128;28;20083;-79
2023/01/08 03:14:33;;;;;;;1.20;0.90;;;;;;;;;;5064303;28;20028;-79
2023/01/08 03:17:24;;;;;;;2.17;0.90;;;;;;;;;;5061348;28;20509;-79
2023/01/08 03:19:55;;;;;;;1.00;0.90;;;;;;;;;;5083878;28;20030;-79
2023/01/08 03:22:21;;;;;;;0.85;0.82;;;;;;;;;;5089452;28;20020;-79
2023/01/08 03:24:50;;;;;;;1.63;1.08;;;;;;;;;;5059701;28;20382;-79
2023/01/08 03:27:19;;;;;;;1.83;0.70;;;;;;;;;;5088322;28;20382;-80
2023/01/08 03:29:46;;;;;;;1.50;1.00;;;;;;;;;;5084593;28;20470;-79
2023/01/08 03:32:14;;;;;;;0.93;0.90;;;;;;;;;;5080763;28;20028;-79
2023/01/08 03:34:41;;;;;;;1.23;0.90;;;;;;;;;;5078401;28;20024;-79
2023/01/08 03:37:08;;;;;;;2.63;1.10;;;;;;;;;;5089837;28;20020;-79
2023/01/08 03:39:40;;;;;;;1.58;0.80;;;;;;;;;;5082693;28;20016;-79
2023/01/08 03:42:08;;;;;;;0.80;0.68;;;;;;;;;;5081244;28;20024;-79
2023/01/08 03:44:34;;;;;;;2.95;0.95;;;;;;;;;;5090952;28;20030;-79
2023/01/08 03:46:59;;;;;;;1.50;0.90;;;;;;;;;;5077714;28;20102;-79
2023/01/08 03:49:26;;;;;;;0.95;0.80;;;;;;;;;;5093844;28;20058;-79
2023/01/08 03:51:51;;;;;;;0.98;0.70;;;;;;;;;;5084828;28;20028;-79
2023/01/08 03:54:20;;;;;;;0.98;0.98;;;;;;;;;;5093799;28;20031;-79
2023/01/08 03:56:45;;;;;;;0.80;0.80;;;;;;;;;;5092187;28;20024;-79
2023/01/08 03:59:12;;;;;;;0.70;0.70;;;;;;;;;;5062596;28;20046;-79
2023/01/08 04:01:37;;;;;;;0.70;0.70;;;;;;;;;;5064800;28;20067;-78
2023/01/08 04:04:03;;;;;;;2.03;0.90;;;;;;;;;;5080353;28;20055;-79
2023/01/08 04:06:28;;;;;;;1.23;0.90;;;;;;;;;;5093394;28;20031;-79
2023/01/08 04:08:53;;;;;;;1.27;0.80;;;;;;;;;;5106228;28;20546;-79
2023/01/08 04:11:19;;;;;;;1.20;0.85;;;;;;;;;;5101243;28;20031;-79
2023/01/08 04:13:44;;;;;;;0.88;0.68;;;;;;;;;;5083919;28;20082;-79
2023/01/08 04:16:10;;;;;;;1.50;1.00;;;;;;;;;;5087050;28;20028;-79
2023/01/08 04:18:35;;;;;;;0.93;0.88;;;;;;;;;;5095006;28;20055;-79
2023/01/08 04:21:01;;;;;;;0.70;0.70;;;;;;;;;;5089880;28;20027;-79
2023/01/08 04:23:26;;;;;;;1.38;0.90;;;;;;;;;;5102287;28;20494;-79
2023/01/08 04:25:52;;;;;;;1.65;1.00;;;;;;;;;;5082721;28;20036;-79
2023/01/08 04:28:17;;;;;;;1.05;0.90;;;;;;;;;;5109408;28;20032;-79
2023/01/08 04:30:43;;;;;;;1.90;0.80;;;;;;;;;;5078405;28;20466;-79
2023/01/08 04:33:08;;;;;;;0.73;0.70;;;;;;;;;;5084367;28;20024;-79
2023/01/08 04:35:34;;;;;;;0.88;0.80;;;;;;;;;;5078720;28;20463;-79
2023/01/08 04:37:59;;;;;;;1.25;0.90;;;;;;;;;;5071934;28;20031;-78
2023/01/08 04:40:25;;;;;;;5.32;0.98;;;;;;;;;;5095677;28;20432;-79
2023/01/08 04:42:50;;;;;;;0.90;0.77;;;;;;;;;;5074118;28;20031;-79
2023/01/08 04:45:15;;;;;;;1.77;0.90;;;;;;;;;;5079087;28;20078;-79
2023/01/08 04:47:41;;;;;;;0.77;0.77;;;;;;;;;;5093082;28;20364;-78
2023/01/08 04:50:06;;;;;;;2.35;0.90;;;;;;;;;;5086212;28;20036;-79
2023/01/08 04:52:32;;;;;;;0.75;0.73;;;;;;;;;;5078437;28;20035;-79
2023/01/08 04:54:57;;;;;;;3.80;1.20;;;;;;;;;;5108104;28;20036;-79
2023/01/08 04:57:23;;;;;;;1.23;0.70;;;;;;;;;;5080063;28;20039;-79
2023/01/08 04:59:48;;;;;;;1.48;1.00;;;;;;;;;;5082651;28;20088;-79
2023/01/08 05:02:13;;;;;;;1.00;1.00;;;;;;;;;;5108563;28;20028;-79
2023/01/08 05:04:39;;;;;;;1.60;1.02;;;;;;;;;;5096418;28;20028;-79
2023/01/08 05:07:04;;;;;;;1.02;0.73;;;;;;;;;;5107261;28;20601;-79
2023/01/08 05:09:29;;;;;;;1.10;0.80;;;;;;;;;;5102703;28;20420;-79
2023/01/08 05:11:55;;;;;;;1.27;0.80;;;;;;;;;;5099914;28;20548;-78
2023/01/08 05:14:20;;;;;;;1.00;0.85;;;;;;;;;;5088237;28;20036;-79
2023/01/08 05:16:46;;;;;;;1.40;0.82;;;;;;;;;;5088398;28;20024;-79
2023/01/08 05:19:12;;;;;;;1.27;0.70;;;;;;;;;;5082025;28;20020;-79
2023/01/08 05:21:37;;;;;;;1.25;0.75;;;;;;;;;;5084503;28;20028;-79
2023/01/08 05:24:03;;;;;;;0.82;0.80;;;;;;;;;;5085739;28;20467;-79
2023/01/08 05:26:28;;;;;;;0.75;0.70;;;;;;;;;;5077996;28;20043;-79
2023/01/08 05:28:54;;;;;;;2.10;0.90;;;;;;;;;;5094966;28;20028;-80
2023/01/08 05:31:19;;;;;;;2.10;0.90;;;;;;;;;;5086801;28;20085;-79
2023/01/08 05:33:44;;;;;;;0.93;0.80;;;;;;;;;;5060404;28;20115;-79
2023/01/08 05:36:11;;;;;;;0.93;0.70;;;;;;;;;;5074852;28;20060;-80
2023/01/08 05:38:37;;;;;;;0.90;0.85;;;;;;;;;;5091353;28;20042;-79
2023/01/08 05:41:03;;;;;;;1.63;0.80;;;;;;;;;;5098473;28;20020;-79
2023/01/08 05:43:29;;;;;;;1.85;0.93;;;;;;;;;;5085386;28;20024;-79
2023/01/08 05:45:57;;;;;;;3.65;1.10;;;;;;;;;;5087572;28;20044;-79
2023/01/08 05:48:22;;;;;;;2.55;0.93;;;;;;;;;;5060829;28;20028;-79
2023/01/08 05:50:49;;;;;;;0.95;0.82;;;;;;;;;;5091880;28;20030;-79
2023/01/08 05:53:14;;;;;;;0.82;0.70;;;;;;;;;;5069009;28;20023;-79
2023/01/08 05:55:39;;;;;;;2.05;1.13;;;;;;;;;;5105413;28;20032;-79
2023/01/08 05:58:05;;;;;;;1.13;0.70;;;;;;;;;;5092482;28;20089;-79
2023/01/08 06:00:31;;;;;;;2.55;0.88;;;;;;;;;;5081164;28;20024;-79
2023/01/08 06:02:56;;;;;;;1.23;0.85;;;;;;;;;;5092989;28;20364;-79
2023/01/08 06:05:22;;;;;;;1.02;0.70;;;;;;;;;;5104581;28;20381;-79
2023/01/08 06:07:47;;;;;;;0.80;0.80;;;;;;;;;;5104599;28;20063;-79
2023/01/08 06:10:13;;;;;;;1.67;0.98;;;;;;;;;;5093578;28;20114;-79
2023/01/08 06:12:38;;;;;;;1.67;0.70;;;;;;;;;;5081160;28;20050;-80
2023/01/08 06:15:04;;;;;;;3.15;0.88;;;;;;;;;;5092119;28;20043;-79
2023/01/08 06:17:30;;;;;;;1.33;0.77;;;;;;;;;;5087611;28;20023;-79
2023/01/08 06:19:55;;;;;;;1.52;0.88;;;;;;;;;;5084897;28;20043;-80
2023/01/08 06:22:21;;;;;;;2.05;1.25;;;;;;;;;;5091190;28;20020;-80
2023/01/08 06:24:46;;;;;;;2.30;0.93;;;;;;;;;;5064568;28;20466;-79
2023/01/08 06:27:11;;;;;;;1.60;0.80;;;;;;;;;;5090714;28;20024;-79
2023/01/08 06:29:37;;;;;;;0.70;0.70;;;;;;;;;;5106370;28;20092;-79
2023/01/08 06:32:02;;;;;;;2.58;0.70;;;;;;;;;;5101773;28;20039;-79
2023/01/08 06:34:28;;;;;;;1.33;1.00;;;;;;;;;;5080686;28;20035;-79
2023/01/08 06:36:53;;;;;;;4.78;0.85;;;;;;;;;;5111319;28;20019;-79
2023/01/08 06:39:18;;;;;;;0.88;0.60;;;;;;;;;;5103541;28;20105;-79
2023/01/08 06:41:44;;;;;;;2.22;0.90;;;;;;;;;;5085979;28;20022;-79
2023/01/08 06:44:09;;;;;;;1.65;0.80;;;;;;;;;;5102367;28;20032;-79
2023/01/08 06:46:38;;;;;;;1.38;0.77;;;;;;;;;;5078454;28;20028;-79
2023/01/08 06:49:07;;;;;;;0.77;0.75;;;;;;;;;;5090150;28;20024;-79
2023/01/08 06:51:32;;;;;;;1.00;0.90;;;;;;;;;;5065793;28;20394;-79
2023/01/08 06:53:58;;;;;;;1.88;0.85;;;;;;;;;;5083574;28;20081;-79
2023/01/08 06:56:23;;;;;;;2.85;0.80;;;;;;;;;;5057274;28;20090;-79
2023/01/08 06:58:49;;;;;;;1.20;0.70;;;;;;;;;;5095111;28;20024;-79
2023/01/08 07:01:15;;;;;;;1.40;0.80;;;;;;;;;;5094860;28;20399;-79
2023/01/08 07:03:41;;;;;;;1.30;0.70;;;;;;;;;;5079684;28;20093;-79
2023/01/08 07:06:06;;;;;;;1.17;0.68;;;;;;;;;;5082499;28;20086;-80
2023/01/08 07:08:32;;;;;;;2.55;0.90;;;;;;;;;;5077347;28;20522;-79
2023/01/08 07:11:02;;;;;;;2.03;0.80;;;;;;;;;;5094916;28;20402;-80
2023/01/08 07:13:28;;;;;;;1.05;0.80;;;;;;;;;;5078175;28;20035;-78
2023/01/08 07:15:54;;;;;;;1.13;0.73;;;;;;;;;;5080244;28;20382;-78
2023/01/08 07:18:20;;;;;;;2.65;0.98;;;;;;;;;;5084314;28;20042;-77
2023/01/08 07:20:47;;;;;;;1.30;0.80;;;;;;;;;;5090696;28;20016;-78
2023/01/08 07:23:12;;;;;;;1.80;1.00;;;;;;;;;;5094507;28;20069;-79
2023/01/08 07:25:38;;;;;;;3.80;1.40;;;;;;;;;;5076577;28;20057;-78
2023/01/08 07:28:03;;;;;;;3.40;1.00;;;;;;;;;;5094379;28;20028;-79
2023/01/08 07:30:28;;;;;;;1.77;0.95;;;;;;;;;;5094567;28;20116;-78
2023/01/08 07:32:57;;;;;;;2.30;1.38;;;;;;;;;;5092293;28;20028;-79
2023/01/08 07:35:23;;;;;;;3.83;1.27;;;;;;;;;;5094720;28;20498;-78
2023/01/08 07:37:48;;;;;;;4.57;1.10;;;;;;;;;;5094583;28;20039;-78
2023/01/08 07:40:14;;;;;;;2.63;1.10;;;;;;;;;;5105692;28;20385;-78
2023/01/08 07:42:39;;;;;;;2.72;1.00;;;;;;;;;;5092224;28;20028;-78
2023/01/08 07:45:05;;;;;;;3.13;1.00;;;;;;;;;;5080210;28;20119;-78
2023/01/08 07:47:30;;;;;;;4.47;1.63;;;;;;;;;;5079952;28;20479;-78
2023/01/08 07:49:56;;;;;;;1.20;1.00;;;;;;;;;;5059425;28;20039;-79
2023/01/08 07:52:21;;;;;;;4.90;1.00;;;;;;;;;;5093772;28;20390;-78
2023/01/08 07:54:46;;;;;;;1.58;1.00;;;;;;;;;;5075972;28;20077;-78
2023/01/08 07:57:12;;;;;;;2.72;1.00;;;;;;;;;;5094026;28;20097;-78
2023/01/08 07:59:37;;;;;;;1.60;1.05;;;;;;;;;;5078550;28;20020;-80
2023/01/08 08:02:03;;;;;;;3.05;1.10;;;;;;;;;;5093934;28;20030;-79
2023/01/08 08:04:29;;;;;;;2.45;0.90;;;;;;;;;;5110591;28;20033;-79
2023/01/08 08:06:54;;;;;;;4.95;1.00;;;;;;;;;;5079362;28;20448;-78
2023/01/08 08:09:20;;;;;;;2.40;1.10;;;;;;;;;;5105186;28;20027;-78
2023/01/08 08:11:45;;;;;;;1.88;1.10;;;;;;;;;;5104528;28;20499;-77
2023/01/08 08:14:10;;;;;;;3.42;1.10;;;;;;;;;;5078984;28;20028;-78
2023/01/08 08:16:36;;;;;;;3.92;1.00;;;;;;;;;;5074254;28;20462;-77
2023/01/08 08:19:01;;;;;;;2.85;1.20;;;;;;;;;;5081142;28;20032;-77
2023/01/08 08:21:28;;;;;;;1.40;0.80;;;;;;;;;;5085813;28;20028;-77
2023/01/08 08:23:54;;;;;;;3.42;1.00;;;;;;;;;;5093378;28;20035;-79
2023/01/08 08:26:25;;;;;;;2.28;0.98;;;;;;;;;;5092055;28;20058;-78
2023/01/08 08:28:51;;;;;;;1.67;0.98;;;;;;;;;;5043518;28;20047;-79
2023/01/08 08:31:17;;;;;;;1.60;0.80;;;;;;;;;;5058495;28;20100;-77
2023/01/08 08:33:42;;;;;;;2.08;1.17;;;;;;;;;;5092758;28;20063;-77
2023/01/08 08:36:08;;;;;;;9.07;1.20;;;;;;;;;;5093200;28;20036;-76
2023/01/08 08:38:36;;;;;;;2.15;1.35;;;;;;;;;;5093283;28;20195;-76
2023/01/08 08:41:01;;;;;;;5.63;1.45;;;;;;;;;;5087095;28;20024;-77
2023/01/08 08:43:26;;;;;;;1.48;1.05;;;;;;;;;;5059397;28;20070;-76
2023/01/08 08:45:55;;;;;;;3.20;1.27;;;;;;;;;;5078341;28;20040;-77
2023/01/08 08:48:20;;;;;;;1.73;1.10;;;;;;;;;;5086739;28;20023;-77
2023/01/08 08:50:46;;;;;;;3.15;1.20;;;;;;;;;;5079009;28;20035;-77
2023/01/08 08:53:11;;;;;;;1.85;1.00;;;;;;;;;;5087657;28;20074;-77
2023/01/08 08:55:36;;;;;;;2.58;1.00;;;;;;;;;;5103154;28;20023;-77
2023/01/08 08:58:09;;;;;;;1.50;0.93;;;;;;;;;;5098623;28;20024;-77
2023/01/08 09:00:35;;;;;;;2.83;0.98;;;;;;;;;;5089695;28;20024;-77
2023/01/08 09:03:00;;;;;;;1.95;0.90;;;;;;;;;;5076565;28;20028;-77
2023/01/08 09:05:26;;;;;;;2.17;0.90;;;;;;;;;;5092419;28;20081;-77
2023/01/08 09:07:53;;;;;;;6.97;1.05;;;;;;;;;;5084405;28;20032;-77
2023/01/08 09:10:18;;;;;;;2.58;1.00;;;;;;;;;;5093076;28;20027;-77
2023/01/08 09:12:44;;;;;;;2.60;1.10;;;;;;;;;;5109577;28;20127;-77
2023/01/08 09:15:09;;;;;;;6.13;1.27;;;;;;;;;;5099720;28;20394;-77
2023/01/08 09:17:35;;;;;;;3.00;1.00;;;;;;;;;;5064636;28;20044;-77
2023/01/08 09:20:01;;;;;;;1.15;0.90;;;;;;;;;;5086706;28;20040;-77
2023/01/08 09:22:26;;;;;;;6.25;1.15;;;;;;;;;;5092788;28;20039;-77
2023/01/08 09:24:53;;;;;;;2.45;1.30;;;;;;;;;;5087154;28;20020;-76
2023/01/08 09:27:19;;;;;;;3.97;1.00;;;;;;;;;;5096851;28;20479;-77
2023/01/08 09:29:44;;;;;;;2.88;1.00;;;;;;;;;;5082604;28;20031;-78
2023/01/08 09:32:10;;;;;;;2.97;1.17;;;;;;;;;;5077275;28;20042;-78
2023/01/08 09:34:35;;;;;;;8.75;1.45;;;;;;;;;;5063868;28;20043;-78
2023/01/08 09:37:01;;;;;;;8.07;1.15;;;;;;;;;;5067772;28;20028;-79
2023/01/08 09:39:26;;;;;;;2.55;1.30;;;;;;;;;;5096646;28;20060;-77
2023/01/08 09:41:52;;;;;;;18.23;1.27;;;;;;;;;;5096608;28;20024;-78
2023/01/08 09:44:21;;;;;;;11.35;1.88;;;;;;;;;;5091483;28;20385;-78
2023/01/08 09:46:47;;;;;;;6.60;1.77;;;;;;;;;;5062039;28;20028;-78
2023/01/08 09:49:18;;;;;;;5.18;1.55;;;;;;;;;;5096729;28;20038;-77
2023/01/08 09:51:43;;;;;;;7.85;1.77;;;;;;;;;;5086993;28;20016;-77
2023/01/08 09:54:13;;;;;;;9.20;2.25;;;;;;;;;;5096457;28;20027;-77
2023/01/08 09:56:39;;;;;;;20.50;2.53;;;;;;;;;;5079077;28;20035;-76
2023/01/08 09:59:04;;;;;;;6.15;1.70;;;;;;;;;;5108729;28;20467;-77
2023/01/08 10:01:34;;;;;;;6.40;1.83;;;;;;;;;;5105935;28;20114;-77
2023/01/08 10:04:17;;;;;;;7.30;1.75;;;;;;;;;;5084555;28;20020;-76
2023/01/08 10:06:52;;;;;;;7.10;2.13;;;;;;;;;;5095091;28;20457;-77
2023/01/08 10:09:22;;;;;;;11.07;1.50;;;;;;;;;;5069273;28;20023;-77
2023/01/08 10:11:49;;;;;;;10.48;2.42;;;;;;;;;;5086105;28;20117;-77
2023/01/08 10:14:27;;;;;;;5.22;1.70;;;;;;;;;;5094096;28;20031;-77
2023/01/08 10:17:26;;;;;;;5.60;1.80;;;;;;;;;;5046573;28;20065;-77
2023/01/08 10:19:51;;;;;;;4.68;1.73;;;;;;;;;;4997491;28;20075;-76
2023/01/08 10:22:23;;;;;;;10.10;1.80;;;;;;;;;;5090023;28;20432;-78
2023/01/08 10:24:48;;;;;;;7.70;1.80;;;;;;;;;;5058595;28;20379;-79
2023/01/08 10:27:14;;;;;;;5.72;1.20;;;;;;;;;;5077744;28;20035;-78
2023/01/08 10:29:40;;;;;;;5.13;1.80;;;;;;;;;;5095683;28;20084;-78
2023/01/08 10:32:14;;;;;;;16.38;1.70;;;;;;;;;;5088696;28;20031;-78
2023/01/08 10:34:47;;;;;;;3.63;1.60;;;;;;;;;;5064210;28;20025;-78
2023/01/08 10:37:22;;;;;;;6.93;1.60;;;;;;;;;;5097103;28;20099;-79
2023/01/08 10:39:48;;;;;;;4.57;1.45;;;;;;;;;;5085488;28;20020;-77
2023/01/08 10:42:15;;;;;;;6.18;1.33;;;;;;;;;;5093093;28;20497;-78
2023/01/08 10:45:02;;;;;;;4.30;1.30;;;;;;;;;;5080516;28;20087;-78
2023/01/08 10:47:30;;;;;;;10.07;1.50;;;;;;;;;;5106292;28;20038;-77
2023/01/08 10:49:56;;;;;;;4.20;1.50;;;;;;;;;;5086314;28;20077;-79
2023/01/08 10:52:31;;;;;;;5.53;1.55;;;;;;;;;;5098590;28;20024;-78
2023/01/08 10:55:09;;;;;;;4.88;1.60;;;;;;;;;;5075634;28;20028;-79
2023/01/08 10:57:35;;;;;;;5.00;1.30;;;;;;;;;;5076760;28;20034;-78
2023/01/08 11:00:00;;;;;;;4.00;1.63;;;;;;;;;;5087657;28;20024;-78
2023/01/08 11:02:31;;;;;;;5.30;1.23;;;;;;;;;;5078479;28;20398;-78
2023/01/08 11:04:57;;;;;;;4.80;1.50;;;;;;;;;;5093979;28;20500;-78
2023/01/08 11:07:23;;;;;;;3.05;1.40;;;;;;;;;;5070584;28;20032;-78
2023/01/08 11:09:50;;;;;;;5.93;1.67;;;;;;;;;;5094453;28;20024;-78
2023/01/08 11:12:37;;;;;;;4.13;1.65;;;;;;;;;;5080334;28;20048;-77
2023/01/08 11:15:30;;;;;;;3.90;1.85;;;;;;;;;;5048372;28;20106;-77
2023/01/08 11:18:12;;;;;;;6.20;1.92;;;;;;;;;;5083787;28;20055;-78
2023/01/08 11:20:38;;;;;;;3.90;1.27;;;;;;;;;;5106952;28;20099;-78
2023/01/08 11:23:20;;;;;;;11.40;2.08;;;;;;;;;;5082612;28;20043;-78
2023/01/08 11:26:05;;;;;;;5.22;2.40;;;;;;;;;;5084526;28;20089;-78
2023/01/08 11:28:55;;;;;;;10.30;2.28;;;;;;;;;;5092810;28;20106;-78
2023/01/08 11:31:38;;;;;;;8.27;2.20;;;;;;;;;;5084401;28;20024;-77
2023/01/08 11:34:15;;;;;;;7.47;2.47;;;;;;;;;;5070398;28;20036;-78
2023/01/08 11:36:56;;;;;;;6.43;1.95;;;;;;;;;;5062350;28;20498;-78
2023/01/08 11:39:21;;;;;;;8.07;1.95;;;;;;;;;;5073819;28;20040;-78
2023/01/08 11:42:16;;;;;;;7.15;2.53;;;;;;;;;;5094022;28;20032;-79
2023/01/08 11:44:58;;;;;;;6.50;1.70;;;;;;;;;;5088110;28;20091;-79
2023/01/08 11:47:31;;;;;;;7.93;2.40;;;;;;;;;;5093754;28;20088;-78
2023/01/08 11:50:04;;;;;;;7.82;2.25;;;;;;;;;;5079214;28;20485;-78
2023/01/08 11:53:07;;;;;;;7.05;1.88;;;;;;;;;;5075530;28;20142;-78
2023/01/08 11:55:46;;;;;;;7.57;1.88;;;;;;;;;;5093672;28;20024;-78
2023/01/08 11:58:32;;;;;;;6.32;1.77;;;;;;;;;;5093606;28;20034;-78
2023/01/08 12:01:18;;;;;;;8.70;1.60;;;;;;;;;;5065009;28;20019;-77
2023/01/08 12:03:53;;;;;;;6.10;1.65;;;;;;;;;;5075615;28;20052;-78
2023/01/08 12:06:43;;;;;;;4.47;1.67;;;;;;;;;;5075410;28;20028;-78
2023/01/08 12:09:28;;;;;;;8.23;1.70;;;;;;;;;;5093344;28;20440;-77
2023/01/08 12:12:04;;;;;;;3.97;1.67;;;;;;;;;;5092952;28;20101;-77
2023/01/08 12:14:35;;;;;;;8.00;1.60;;;;;;;;;;5093837;28;20073;-77
2023/01/08 12:17:11;;;;;;;11.15;2.25;;;;;;;;;;5088256;28;20024;-77
2023/01/08 12:20:07;;;;;;;6.53;2.42;;;;;;;;;;5055674;28;20125;-77
2023/01/08 12:23:12;;;;;;;10.48;2.67;;;;;;;;;;5073819;28;20017;-78
2023/01/08 12:25:56;;;;;;;9.23;2.50;;;;;;;;;;5071159;28;20056;-78
2023/01/08 12:28:52;;;;;;;6.72;2.28;;;;;;;;;;5076065;28;20547;-78
2023/01/08 12:31:42;;;;;;;9.20;2.17;;;;;;;;;;5092552;28;20040;-77
2023/01/08 12:34:14;;;;;;;10.75;2.28;;;;;;;;;;5090448;28;20020;-78
2023/01/08 12:36:44;;;;;;;11.07;1.98;;;;;;;;;;5070793;28;20016;-78
2023/01/08 12:39:13;;;;;;;10.27;2.17;;;;;;;;;;5093505;28;20024;-78
2023/01/08 12:41:41;;;;;;;7.18;1.67;;;;;;;;;;5071871;28;20020;-78
2023/01/08 12:44:10;;;;;;;5.55;1.60;;;;;;;;;;5093342;28;20101;-78
2023/01/08 12:46:44;;;;;;;10.15;2.20;;;;;;;;;;5071634;28;20031;-77
2023/01/08 12:49:13;;;;;;;7.47;1.60;;;;;;;;;;5086789;28;20054;-78
2023/01/08 12:52:35;;;;;;;9.10;1.95;;;;;;;;;;5055558;28;20056;-77
2023/01/08 12:55:24;;;;;;;8.77;1.83;;;;;;;;;;5022692;28;20159;-76
2023/01/08 12:58:24;;;;;;;6.82;1.50;;;;;;;;;;5054527;28;20563;-77
2023/01/08 13:00:53;;;;;;;5.72;1.90;;;;;;;;;;4972721;28;20041;-77
2023/01/08 13:03:23;;;;;;;4.75;1.50;;;;;;;;;;5045146;28;20429;-77
2023/01/08 13:05:49;;;;;;;8.73;1.65;;;;;;;;;;5061943;28;20024;-78
2023/01/08 13:08:31;;;;;;;2.60;1.38;;;;;;;;;;5079991;28;20032;-79
2023/01/08 13:10:57;;;;;;;6.53;1.40;;;;;;;;;;5074017;28;20019;-78
2023/01/08 13:13:29;;;;;;;4.57;1.55;;;;;;;;;;5081371;28;20495;-78
2023/01/08 13:16:10;;;;;;;9.48;1.33;;;;;;;;;;5075085;28;20047;-77
2023/01/08 13:18:36;;;;;;;11.57;2.00;;;;;;;;;;5098168;28;20587;-77
2023/01/08 13:21:03;;;;;;;6.40;1.13;;;;;;;;;;5080289;28;20114;-76
2023/01/08 13:23:30;;;;;;;2.90;1.20;;;;;;;;;;5099345;28;20068;-77
2023/01/08 13:25:57;;;;;;;5.50;1.30;;;;;;;;;;5097797;28;20039;-77
2023/01/08 13:28:49;;;;;;;5.38;1.35;;;;;;;;;;5095969;28;20032;-76
2023/01/08 13:31:20;;;;;;;6.43;1.40;;;;;;;;;;5093976;28;20035;-76
2023/01/08 13:33:51;;;;;;;9.90;1.52;;;;;;;;;;5096518;28;20028;-78
2023/01/08 13:36:21;;;;;;;5.72;1.20;;;;;;;;;;5080733;28;20031;-77
2023/01/08 13:39:35;;;;;;;2.92;1.15;;;;;;;;;;5096618;28;20031;-78
2023/01/08 13:42:19;;;;;;;7.43;1.40;;;;;;;;;;4981916;28;20392;-79
2023/01/08 13:44:59;;;;;;;3.17;1.58;;;;;;;;;;4982957;28;20041;-77
2023/01/08 13:47:32;;;;;;;2.60;1.40;;;;;;;;;;4961631;28;20038;-80
2023/01/08 13:49:59;;;;;;;4.93;1.23;;;;;;;;;;5002341;28;20038;-79
2023/01/08 13:52:54;;;;;;;5.95;1.52;;;;;;;;;;4987641;28;20038;-80
2023/01/08 13:55:25;;;;;;;7.18;1.40;;;;;;;;;;4989153;28;20030;-80
2023/01/08 13:57:54;;;;;;;6.55;1.42;;;;;;;;;;5005531;28;20120;-79
2023/01/08 14:00:31;;;;;;;2.50;1.38;;;;;;;;;;4987801;28;20509;-79
2023/01/08 14:02:56;;;;;;;5.95;1.75;;;;;;;;;;4985427;28;20595;-78
2023/01/08 14:05:27;;;;;;;3.20;1.55;;;;;;;;;;4984137;28;20136;-79
2023/01/08 14:07:53;;;;;;;4.28;1.55;;;;;;;;;;5001401;28;20038;-79
2023/01/08 14:10:19;;;;;;;4.30;1.40;;;;;;;;;;4980712;28;20389;-79
2023/01/08 14:12:45;;;;;;;4.15;1.75;;;;;;;;;;5043257;28;20044;-79
2023/01/08 14:15:20;;;;;;;5.20;1.60;;;;;;;;;;5096161;28;20108;-78
2023/01/08 14:17:46;;;;;;;2.20;1.20;;;;;;;;;;5077890;28;20024;-79
2023/01/08 14:20:11;;;;;;;5.30;1.42;;;;;;;;;;5044381;28;20081;-78
2023/01/08 14:22:38;;;;;;;3.63;1.40;;;;;;;;;;5077693;28;20018;-78
2023/01/08 14:25:05;;;;;;;4.13;1.40;;;;;;;;;;5095486;28;20031;-79
2023/01/08 14:27:31;;;;;;;6.32;1.40;;;;;;;;;;5077737;28;20048;-78
2023/01/08 14:29:57;;;;;;;7.55;1.30;;;;;;;;;;5077510;28;20028;-80
2023/01/08 14:32:25;;;;;;;4.20;1.33;;;;;;;;;;5095434;28;20032;-79
2023/01/08 14:34:52;;;;;;;3.65;1.02;;;;;;;;;;5077333;28;20111;-80
2023/01/08 14:37:18;;;;;;;3.33;1.83;;;;;;;;;;5077389;28;20028;-80
2023/01/08 14:39:44;;;;;;;2.50;1.20;;;;;;;;;;5077413;28;20103;-79
2023/01/08 14:45:25;;;;;;;4.35;1.25;;;;;;;;;;5080081;28;20043;-80
2023/01/08 14:48:00;;;;;;;2.40;1.20;;;;;;;;;;5094548;28;20040;-78
2023/01/08 14:50:28;;;;;;;2.72;1.00;;;;;;;;;;5094061;28;20051;-78
2023/01/08 14:53:02;;;;;;;2.45;1.08;;;;;;;;;;5091644;28;20028;-79
2023/01/08 14:55:35;;;;;;;4.55;1.42;;;;;;;;;;5076834;28;20024;-78
2023/01/08 14:58:01;;;;;;;3.63;1.40;;;;;;;;;;5093954;28;20027;-78
2023/01/08 15:00:29;;;;;;;3.92;1.52;;;;;;;;;;5076283;28;20036;-78
2023/01/08 15:02:55;;;;;;;3.80;1.30;;;;;;;;;;5076616;28;20024;-79